Time;durP1;ratioP1;P1;durP2;ratioP2;P2;SDS_P1;SDS_P2;PMS_P1;PMS_P2;Temp;Humidity;BMP_temperature;BMP_pressure;BME280_temperature;BME280_humidity;BME280_pressure;Samples;Min_cycle;Max_cycle;Signal;HPM_P1;HPM_P2
2023/05/08 00:00:21;;;;;;;20.95;16.33;;;13.50;99.90;;;;;;5031211;28;20048;-69
2023/05/08 00:02:47;;;;;;;17.83;14.65;;;13.50;99.90;;;;;;5022284;28;20033;-70
2023/05/08 00:05:13;;;;;;;17.77;14.63;;;13.50;99.90;;;;;;5026925;28;20087;-69
2023/05/08 00:07:39;;;;;;;18.17;14.52;;;13.50;99.90;;;;;;5032036;28;20045;-69
2023/05/08 00:10:05;;;;;;;20.23;15.07;;;13.50;99.90;;;;;;5026290;28;20030;-69
2023/05/08 00:12:31;;;;;;;20.08;15.68;;;13.40;99.90;;;;;;5027219;28;20029;-69
2023/05/08 00:14:57;;;;;;;18.80;15.13;;;13.40;99.90;;;;;;5028912;28;20044;-69
2023/05/08 00:17:22;;;;;;;20.48;15.50;;;13.40;99.90;;;;;;5024475;28;20038;-69
2023/05/08 00:19:48;;;;;;;19.55;15.20;;;13.40;99.90;;;;;;5030983;28;20041;-69
2023/05/08 00:22:13;;;;;;;19.13;15.85;;;13.40;99.90;;;;;;5022290;28;20041;-70
2023/05/08 00:24:39;;;;;;;20.92;14.88;;;13.40;99.90;;;;;;5027720;28;20563;-69
2023/05/08 00:27:06;;;;;;;18.13;14.27;;;13.40;99.90;;;;;;5030083;28;20434;-69
2023/05/08 00:29:32;;;;;;;18.70;15.50;;;13.30;99.90;;;;;;5030598;28;20046;-69
2023/05/08 00:31:58;;;;;;;19.40;14.88;;;13.30;99.90;;;;;;5030525;28;20041;-70
2023/05/08 00:34:24;;;;;;;19.20;15.30;;;13.30;99.90;;;;;;5022450;28;20077;-69
2023/05/08 00:36:50;;;;;;;19.23;15.63;;;13.30;99.90;;;;;;5030683;28;20088;-69
2023/05/08 00:39:15;;;;;;;18.73;14.88;;;13.30;99.90;;;;;;5029400;28;20061;-69
2023/05/08 00:41:41;;;;;;;19.73;15.65;;;13.30;99.90;;;;;;5028563;28;20042;-69
2023/05/08 00:44:07;;;;;;;19.20;15.50;;;13.30;99.90;;;;;;5027858;28;20109;-69
2023/05/08 00:46:33;;;;;;;20.30;15.40;;;13.30;99.90;;;;;;5034201;28;20391;-69
2023/05/08 00:48:59;;;;;;;19.52;15.55;;;13.20;99.90;;;;;;5029343;28;20037;-69
2023/05/08 00:51:25;;;;;;;19.45;16.20;;;13.30;99.90;;;;;;5033235;28;20029;-69
2023/05/08 00:53:51;;;;;;;19.13;15.65;;;13.20;99.90;;;;;;5024562;28;20030;-69
2023/05/08 00:56:19;;;;;;;22.60;15.90;;;13.20;99.90;;;;;;5025334;28;20120;-69
2023/05/08 00:58:45;;;;;;;18.98;15.10;;;13.20;99.90;;;;;;5030085;28;20037;-70
2023/05/08 01:01:11;;;;;;;19.58;15.55;;;13.20;99.90;;;;;;5029485;28;20403;-69
2023/05/08 01:03:37;;;;;;;19.35;15.85;;;13.30;99.90;;;;;;5029843;28;20030;-69
2023/05/08 01:06:03;;;;;;;21.02;16.90;;;13.20;99.90;;;;;;5026244;28;20033;-69
2023/05/08 01:08:30;;;;;;;20.55;16.02;;;13.20;99.90;;;;;;5029585;28;20033;-69
2023/05/08 01:11:27;;;;;;;20.33;15.15;;;13.20;99.90;;;;;;5029206;28;20092;-69
2023/05/08 01:14:06;;;;;;;19.60;15.70;;;13.10;99.90;;;;;;5033104;28;20048;-69
2023/05/08 01:16:51;;;;;;;17.70;14.93;;;13.10;99.90;;;;;;5031486;28;20037;-69
2023/05/08 01:19:41;;;;;;;19.48;15.32;;;13.10;99.90;;;;;;5027873;28;20387;-69
2023/05/08 01:22:20;;;;;;;19.35;15.18;;;13.00;99.90;;;;;;5031074;28;20065;-69
2023/05/08 01:25:04;;;;;;;19.50;15.05;;;12.90;99.90;;;;;;5030190;28;20041;-69
2023/05/08 01:28:07;;;;;;;18.90;14.77;;;12.90;99.90;;;;;;5032582;28;20033;-69
2023/05/08 01:31:01;;;;;;;18.08;14.75;;;12.90;99.90;;;;;;5034458;28;20387;-69
2023/05/08 01:33:54;;;;;;;18.20;14.60;;;12.80;99.90;;;;;;5032918;28;20120;-69
2023/05/08 01:36:35;;;;;;;18.60;15.02;;;12.80;99.90;;;;;;5032570;28;20541;-69
2023/05/08 01:39:08;;;;;;;19.13;15.00;;;12.70;99.90;;;;;;5059138;22;20568;-66
2023/05/08 01:41:35;;;;;;;17.52;14.45;;;12.70;99.90;;;;;;5053583;28;20041;-66
2023/05/08 01:44:17;;;;;;;21.05;15.55;;;12.70;99.90;;;;;;5048604;28;20037;-66
2023/05/08 01:46:49;;;;;;;19.60;14.75;;;12.70;99.90;;;;;;5043193;28;20044;-66
2023/05/08 01:49:26;;;;;;;20.67;15.48;;;12.60;99.90;;;;;;5063523;28;20045;-66
2023/05/08 01:51:57;;;;;;;19.02;14.82;;;12.60;99.90;;;;;;5054288;28;20069;-66
2023/05/08 01:54:27;;;;;;;17.60;14.45;;;12.50;99.90;;;;;;5052412;28;20048;-66
2023/05/08 01:56:56;;;;;;;19.17;14.38;;;12.50;99.90;;;;;;5053941;28;20048;-66
2023/05/08 01:59:23;;;;;;;18.40;14.57;;;12.40;99.90;;;;;;5058811;28;20386;-66
2023/05/08 02:01:52;;;;;;;19.02;14.48;;;12.40;99.90;;;;;;5051740;28;20029;-66
2023/05/08 02:04:19;;;;;;;19.73;14.93;;;12.40;99.90;;;;;;5066734;28;20051;-66
2023/05/08 02:06:45;;;;;;;19.17;14.00;;;12.30;99.90;;;;;;5047764;28;20037;-65
2023/05/08 02:09:11;;;;;;;19.17;14.40;;;12.30;99.90;;;;;;5064867;28;20032;-65
2023/05/08 02:11:40;;;;;;;19.27;14.68;;;12.30;99.90;;;;;;5055558;28;20037;-66
2023/05/08 02:14:07;;;;;;;17.23;14.15;;;12.20;99.90;;;;;;5053758;28;20037;-66
2023/05/08 02:16:34;;;;;;;18.52;14.52;;;12.20;99.90;;;;;;5051383;28;20033;-66
2023/05/08 02:19:01;;;;;;;19.05;13.80;;;12.20;99.90;;;;;;5062834;28;20051;-66
2023/05/08 02:21:29;;;;;;;19.13;15.07;;;12.20;99.90;;;;;;5048432;28;20067;-66
2023/05/08 02:23:56;;;;;;;18.17;14.45;;;12.10;99.90;;;;;;5059818;28;20037;-65
2023/05/08 02:26:24;;;;;;;17.58;13.90;;;12.10;99.90;;;;;;5051472;28;20458;-66
2023/05/08 02:28:52;;;;;;;19.55;14.60;;;12.10;99.90;;;;;;5056196;28;20033;-66
2023/05/08 02:31:19;;;;;;;18.63;14.68;;;12.10;99.90;;;;;;5061250;28;20029;-66
2023/05/08 02:33:46;;;;;;;20.10;14.98;;;12.10;99.90;;;;;;5053596;28;20037;-66
2023/05/08 02:36:16;;;;;;;18.00;13.70;;;12.10;99.90;;;;;;5048930;28;20171;-65
2023/05/08 02:38:45;;;;;;;18.70;14.77;;;12.10;99.90;;;;;;5051929;28;20037;-66
2023/05/08 02:41:12;;;;;;;19.48;14.80;;;12.00;99.90;;;;;;5061306;28;20078;-66
2023/05/08 02:43:38;;;;;;;17.77;14.27;;;12.00;99.90;;;;;;5052493;28;20544;-66
2023/05/08 02:46:09;;;;;;;17.77;13.75;;;12.00;99.90;;;;;;5051404;28;20029;-65
2023/05/08 02:49:06;;;;;;;17.10;14.10;;;12.00;99.90;;;;;;5052940;28;20029;-66
2023/05/08 02:52:01;;;;;;;18.23;14.00;;;12.00;99.90;;;;;;5035886;28;20595;-65
2023/05/08 02:54:37;;;;;;;17.48;13.85;;;12.00;99.90;;;;;;5044929;28;20037;-65
2023/05/08 02:57:26;;;;;;;19.45;14.27;;;12.00;99.90;;;;;;5049306;28;21582;-65
2023/05/08 03:00:04;;;;;;;19.00;13.77;;;11.90;99.90;;;;;;5052452;28;20029;-66
2023/05/08 03:02:39;;;;;;;20.05;14.35;;;11.90;99.90;;;;;;5069941;28;20286;-66
2023/05/08 03:05:18;;;;;;;17.73;14.07;;;11.90;99.90;;;;;;5044323;28;20102;-66
2023/05/08 03:07:48;;;;;;;18.45;14.00;;;11.80;99.90;;;;;;5051253;28;20049;-66
2023/05/08 03:10:18;;;;;;;17.52;13.57;;;11.80;99.90;;;;;;5056471;28;20047;-66
2023/05/08 03:12:47;;;;;;;17.42;13.70;;;11.80;99.90;;;;;;5051952;28;20458;-66
2023/05/08 03:15:25;;;;;;;20.85;14.45;;;11.70;99.90;;;;;;5047391;28;20049;-66
2023/05/08 03:18:02;;;;;;;17.98;13.93;;;11.70;99.90;;;;;;5043737;28;20052;-66
2023/05/08 03:20:34;;;;;;;18.75;14.82;;;11.70;99.90;;;;;;5055992;28;20124;-65
2023/05/08 03:23:03;;;;;;;18.85;14.00;;;11.70;99.90;;;;;;5052223;28;20111;-65
2023/05/08 03:25:31;;;;;;;18.45;14.23;;;11.60;99.90;;;;;;5050236;28;20037;-65
2023/05/08 03:27:58;;;;;;;18.70;14.80;;;11.60;99.90;;;;;;5057729;28;20045;-65
2023/05/08 03:30:25;;;;;;;19.73;14.82;;;11.60;99.90;;;;;;5058343;28;20395;-65
2023/05/08 03:32:52;;;;;;;20.83;15.32;;;11.60;99.90;;;;;;5069317;28;20048;-65
2023/05/08 03:35:18;;;;;;;18.75;14.52;;;11.50;99.90;;;;;;5048599;28;20041;-66
2023/05/08 03:37:44;;;;;;;17.15;13.90;;;11.50;99.90;;;;;;5048173;28;20037;-66
2023/05/08 03:40:10;;;;;;;17.25;13.57;;;11.50;99.90;;;;;;5057026;28;20086;-65
2023/05/08 03:42:37;;;;;;;17.35;14.30;;;11.50;99.90;;;;;;5065318;28;20471;-66
2023/05/08 03:45:03;;;;;;;19.80;14.80;;;11.50;99.90;;;;;;5052641;28;20478;-66
2023/05/08 03:47:30;;;;;;;18.20;13.73;;;11.50;99.90;;;;;;5055187;28;20055;-65
2023/05/08 03:49:56;;;;;;;17.25;13.65;;;11.50;99.90;;;;;;5057475;28;22082;-66
2023/05/08 03:52:23;;;;;;;18.02;14.43;;;11.60;99.90;;;;;;5051326;28;20044;-66
2023/05/08 03:54:49;;;;;;;18.23;13.40;;;11.60;99.90;;;;;;5052845;28;20074;-65
2023/05/08 03:57:14;;;;;;;17.65;13.25;;;11.50;99.90;;;;;;5043060;28;20487;-66
2023/05/08 04:00:19;;;;;;;19.40;14.07;;;11.50;99.90;;;;;;5057776;28;20155;-66
2023/05/08 04:03:05;;;;;;;17.27;14.15;;;11.50;99.90;;;;;;5048698;28;20112;-65
2023/05/08 04:06:02;;;;;;;18.27;13.63;;;11.50;99.90;;;;;;5025096;28;20267;-66
2023/05/08 04:08:30;;;;;;;19.60;14.85;;;11.40;99.90;;;;;;5050660;28;20041;-65
2023/05/08 04:11:06;;;;;;;18.88;14.05;;;11.40;99.90;;;;;;5055026;28;20044;-66
2023/05/08 04:13:37;;;;;;;21.02;15.77;;;11.50;99.90;;;;;;5056583;28;20042;-66
2023/05/08 04:16:16;;;;;;;18.63;14.27;;;11.40;99.90;;;;;;5052181;28;20041;-65
2023/05/08 04:18:46;;;;;;;17.80;13.40;;;11.40;99.90;;;;;;5059116;28;20048;-65
2023/05/08 04:21:18;;;;;;;18.83;13.77;;;11.50;99.90;;;;;;5057583;28;20075;-66
2023/05/08 04:23:46;;;;;;;18.48;13.95;;;11.40;99.90;;;;;;5045462;28;20074;-66
2023/05/08 04:26:15;;;;;;;17.02;13.57;;;11.40;99.90;;;;;;5048097;28;20112;-66
2023/05/08 04:28:41;;;;;;;19.98;14.60;;;11.40;99.90;;;;;;5045872;28;20072;-65
2023/05/08 04:31:07;;;;;;;19.27;14.52;;;11.40;99.90;;;;;;5042299;28;20079;-65
2023/05/08 04:33:34;;;;;;;19.92;13.85;;;11.40;99.90;;;;;;5040817;28;20072;-65
2023/05/08 04:36:02;;;;;;;17.65;14.05;;;11.40;99.90;;;;;;5045246;28;20060;-65
2023/05/08 04:38:28;;;;;;;19.58;14.32;;;11.40;99.90;;;;;;5046338;28;20032;-65
2023/05/08 04:40:54;;;;;;;19.55;14.52;;;11.40;99.90;;;;;;5047655;28;20037;-65
2023/05/08 04:43:20;;;;;;;16.52;13.48;;;11.50;99.90;;;;;;5049001;28;20041;-65
2023/05/08 04:45:46;;;;;;;19.92;14.52;;;11.40;99.90;;;;;;5042519;28;20045;-66
2023/05/08 04:48:11;;;;;;;18.20;13.88;;;11.40;99.90;;;;;;5059855;28;20120;-65
2023/05/08 04:50:37;;;;;;;20.23;14.05;;;11.30;99.90;;;;;;5054235;28;20466;-65
2023/05/08 04:53:03;;;;;;;19.60;14.57;;;11.40;99.90;;;;;;5050948;28;20069;-65
2023/05/08 04:55:28;;;;;;;16.95;13.73;;;11.30;99.90;;;;;;5053507;28;20123;-65
2023/05/08 04:57:54;;;;;;;19.75;14.60;;;11.30;99.90;;;;;;5054825;28;20033;-65
2023/05/08 05:00:19;;;;;;;19.08;14.00;;;11.30;99.90;;;;;;5070902;28;20040;-65
2023/05/08 05:02:45;;;;;;;21.27;14.68;;;11.30;99.90;;;;;;5053291;28;20418;-65
2023/05/08 05:05:10;;;;;;;17.75;14.30;;;11.30;99.90;;;;;;5051587;28;20033;-64
2023/05/08 05:07:36;;;;;;;20.63;14.82;;;11.20;99.90;;;;;;5054492;28;20060;-65
2023/05/08 05:10:03;;;;;;;19.85;14.73;;;11.20;99.90;;;;;;5055261;28;20053;-65
2023/05/08 05:12:28;;;;;;;18.15;14.13;;;11.30;99.90;;;;;;5052911;28;20486;-65
2023/05/08 05:14:54;;;;;;;17.42;13.32;;;11.30;99.90;;;;;;5061868;28;20052;-65
2023/05/08 05:17:20;;;;;;;19.85;14.30;;;11.20;99.90;;;;;;5054232;28;20127;-65
2023/05/08 05:19:46;;;;;;;18.98;14.60;;;11.30;99.90;;;;;;5054382;28;20098;-64
2023/05/08 05:22:11;;;;;;;19.02;14.25;;;11.30;99.90;;;;;;5058240;28;20033;-65
2023/05/08 05:24:38;;;;;;;19.83;15.60;;;11.30;99.90;;;;;;5050040;28;20043;-65
2023/05/08 05:27:04;;;;;;;19.48;14.55;;;11.40;99.90;;;;;;5051500;28;20562;-65
2023/05/08 05:29:29;;;;;;;18.38;14.25;;;11.50;99.90;;;;;;5057937;28;20033;-65
2023/05/08 05:31:55;;;;;;;20.00;14.57;;;11.50;99.90;;;;;;5053683;28;20044;-65
2023/05/08 05:34:20;;;;;;;17.70;13.68;;;11.60;99.90;;;;;;5054390;28;20037;-64
2023/05/08 05:36:46;;;;;;;18.00;14.07;;;11.70;99.90;;;;;;5052841;28;20041;-65
2023/05/08 05:39:12;;;;;;;20.15;14.20;;;11.80;99.90;;;;;;5056048;28;20618;-65
2023/05/08 05:41:38;;;;;;;20.88;14.32;;;11.80;99.90;;;;;;5050359;28;20040;-65
2023/05/08 05:44:03;;;;;;;18.63;14.35;;;11.90;99.90;;;;;;5052361;28;20035;-65
2023/05/08 05:46:31;;;;;;;19.48;14.70;;;11.90;99.90;;;;;;5056759;28;20032;-65
2023/05/08 05:49:00;;;;;;;18.02;13.27;;;12.00;99.90;;;;;;5050742;28;20033;-65
2023/05/08 05:51:26;;;;;;;19.58;13.82;;;12.00;99.90;;;;;;5044330;28;20166;-65
2023/05/08 05:53:52;;;;;;;17.15;13.25;;;12.10;99.90;;;;;;5050172;28;20045;-65
2023/05/08 05:56:18;;;;;;;18.02;13.80;;;12.10;99.90;;;;;;5050391;28;20037;-65
2023/05/08 05:58:44;;;;;;;17.02;13.65;;;12.20;99.90;;;;;;5049124;28;20120;-65
2023/05/08 06:01:10;;;;;;;16.75;12.73;;;12.20;99.90;;;;;;5051351;28;20072;-65
2023/05/08 06:03:36;;;;;;;20.20;14.10;;;12.30;99.90;;;;;;5052102;28;20716;-65
2023/05/08 06:06:02;;;;;;;17.27;13.25;;;12.30;99.90;;;;;;5053443;28;20112;-65
2023/05/08 06:08:28;;;;;;;15.45;12.02;;;12.30;99.90;;;;;;5051284;28;20549;-66
2023/05/08 06:10:54;;;;;;;14.18;11.85;;;12.40;99.90;;;;;;5050747;28;20041;-65
2023/05/08 06:13:19;;;;;;;14.57;12.23;;;12.50;99.90;;;;;;5042792;28;20402;-65
2023/05/08 06:15:45;;;;;;;15.25;12.50;;;12.50;99.90;;;;;;5044587;28;20139;-65
2023/05/08 06:18:11;;;;;;;14.65;12.23;;;12.60;99.90;;;;;;5052411;28;20036;-65
2023/05/08 06:20:37;;;;;;;17.15;12.70;;;12.60;99.90;;;;;;5051012;28;20139;-65
2023/05/08 06:23:03;;;;;;;19.33;13.43;;;12.60;99.90;;;;;;5051793;28;20144;-65
2023/05/08 06:25:29;;;;;;;14.70;12.43;;;12.70;99.90;;;;;;5052259;28;20041;-65
2023/05/08 06:27:56;;;;;;;16.55;13.13;;;12.70;99.90;;;;;;5048610;28;20052;-64
2023/05/08 06:30:21;;;;;;;17.00;13.27;;;12.60;99.90;;;;;;5053307;28;20398;-65
2023/05/08 06:32:47;;;;;;;17.45;12.65;;;12.60;99.90;;;;;;5034868;28;20045;-65
2023/05/08 06:35:17;;;;;;;15.88;12.57;;;12.70;99.90;;;;;;5046347;28;20467;-65
2023/05/08 06:37:43;;;;;;;14.98;12.10;;;12.80;99.90;;;;;;5052111;28;20056;-65
2023/05/08 06:40:09;;;;;;;17.33;12.98;;;13.00;99.90;;;;;;5049417;28;20458;-65
2023/05/08 06:42:35;;;;;;;14.30;12.00;;;13.10;99.90;;;;;;5052928;28;20094;-65
2023/05/08 06:45:01;;;;;;;14.38;12.32;;;13.30;99.90;;;;;;5046349;28;20044;-65
2023/05/08 06:47:27;;;;;;;16.73;12.75;;;13.40;99.90;;;;;;5049755;28;20123;-65
2023/05/08 06:49:52;;;;;;;16.00;12.27;;;13.60;99.90;;;;;;5052802;28;20120;-65
2023/05/08 06:52:19;;;;;;;15.55;12.13;;;13.70;99.90;;;;;;5051991;28;20076;-64
2023/05/08 06:54:45;;;;;;;17.75;11.93;;;13.80;99.90;;;;;;5052620;28;20137;-65
2023/05/08 06:57:13;;;;;;;14.98;12.40;;;13.90;99.90;;;;;;5048741;28;20116;-65
2023/05/08 06:59:39;;;;;;;14.65;12.40;;;14.00;99.90;;;;;;5047378;28;20450;-64
2023/05/08 07:02:04;;;;;;;14.95;11.55;;;14.10;99.90;;;;;;5038923;28;20057;-64
2023/05/08 07:04:30;;;;;;;15.15;12.35;;;14.30;99.90;;;;;;5044118;28;20410;-64
2023/05/08 07:06:56;;;;;;;18.02;12.40;;;14.40;99.90;;;;;;5050090;28;20456;-65
2023/05/08 07:09:21;;;;;;;16.95;12.93;;;14.50;99.90;;;;;;5047865;28;20766;-65
2023/05/08 07:11:47;;;;;;;15.35;12.10;;;14.70;99.90;;;;;;5049966;28;20037;-64
2023/05/08 07:14:13;;;;;;;16.45;12.68;;;14.80;99.90;;;;;;5061105;28;20044;-65
2023/05/08 07:16:38;;;;;;;17.13;12.77;;;14.90;99.90;;;;;;5052940;28;20090;-65
2023/05/08 07:19:04;;;;;;;15.27;12.02;;;15.10;99.90;;;;;;5051137;28;20578;-65
2023/05/08 07:21:29;;;;;;;16.75;12.30;;;15.30;99.90;;;;;;5051419;28;20479;-65
2023/05/08 07:23:55;;;;;;;15.75;12.75;;;15.40;99.90;;;;;;5052813;28;20033;-65
2023/05/08 07:26:21;;;;;;;14.70;12.68;;;15.70;99.90;;;;;;5052775;28;20041;-65
2023/05/08 07:28:47;;;;;;;14.02;11.73;;;15.80;99.90;;;;;;5051567;28;20072;-65
2023/05/08 07:31:13;;;;;;;14.70;12.32;;;15.90;99.90;;;;;;5052397;28;20041;-65
2023/05/08 07:33:39;;;;;;;17.30;13.02;;;16.00;99.90;;;;;;5051613;28;20032;-65
2023/05/08 07:36:05;;;;;;;14.75;11.98;;;16.00;99.90;;;;;;5050884;28;20676;-65
2023/05/08 07:38:31;;;;;;;17.30;13.23;;;16.00;99.90;;;;;;5051828;28;20063;-65
2023/05/08 07:40:56;;;;;;;17.40;12.98;;;15.90;99.90;;;;;;5052181;28;20040;-64
2023/05/08 07:43:23;;;;;;;14.85;12.60;;;15.80;99.90;;;;;;5051272;28;20049;-64
2023/05/08 07:45:48;;;;;;;16.98;13.13;;;15.70;99.90;;;;;;5052445;28;20037;-65
2023/05/08 07:48:14;;;;;;;14.93;12.05;;;15.70;99.90;;;;;;5052145;28;20110;-64
2023/05/08 07:50:39;;;;;;;15.73;12.50;;;15.80;99.90;;;;;;5051439;28;20053;-65
2023/05/08 07:53:05;;;;;;;16.23;12.77;;;15.80;99.90;;;;;;5051157;28;20029;-64
2023/05/08 07:55:31;;;;;;;16.33;13.73;;;15.80;99.90;;;;;;5051966;28;20075;-69
2023/05/08 07:57:57;;;;;;;15.85;12.93;;;15.80;99.90;;;;;;5049967;28;20060;-69
2023/05/08 08:00:26;;;;;;;17.08;13.75;;;15.80;99.90;;;;;;5050205;28;20047;-69
2023/05/08 08:02:51;;;;;;;16.30;13.18;;;15.90;99.90;;;;;;5047981;28;20391;-69
2023/05/08 08:05:17;;;;;;;18.98;14.25;;;16.10;99.90;;;;;;5049537;28;20043;-69
2023/05/08 08:07:43;;;;;;;16.25;13.52;;;16.30;99.90;;;;;;5049287;28;20051;-69
2023/05/08 08:10:08;;;;;;;17.25;14.48;;;16.50;99.90;;;;;;5049449;28;20029;-69
2023/05/08 08:12:34;;;;;;;17.02;13.90;;;16.60;99.90;;;;;;5035421;28;20068;-69
2023/05/08 08:14:59;;;;;;;17.30;13.60;;;16.80;99.90;;;;;;5038703;28;20045;-69
2023/05/08 08:17:25;;;;;;;17.83;13.45;;;17.00;99.90;;;;;;5051798;28;20032;-70
2023/05/08 08:19:51;;;;;;;16.00;13.02;;;17.20;99.90;;;;;;5051667;28;20510;-70
2023/05/08 08:22:16;;;;;;;17.00;13.38;;;17.30;99.90;;;;;;5051266;28;20072;-70
2023/05/08 08:24:42;;;;;;;17.85;14.75;;;17.40;99.90;;;;;;5051832;28;20266;-70
2023/05/08 08:27:07;;;;;;;16.63;13.43;;;17.40;99.90;;;;;;5051140;28;20037;-69
2023/05/08 08:29:33;;;;;;;16.73;14.40;;;17.40;99.90;;;;;;5050265;28;20055;-69
2023/05/08 08:31:59;;;;;;;19.05;14.57;;;17.40;99.90;;;;;;5051461;28;20132;-71
2023/05/08 08:34:25;;;;;;;17.52;13.25;;;17.50;99.90;;;;;;5050792;28;20099;-71
2023/05/08 08:36:50;;;;;;;18.38;14.38;;;17.60;99.90;;;;;;5050865;28;20040;-70
2023/05/08 08:39:16;;;;;;;16.95;14.23;;;17.70;99.90;;;;;;5049572;28;20064;-70
2023/05/08 08:41:41;;;;;;;16.55;13.55;;;17.80;99.90;;;;;;5050275;28;20052;-70
2023/05/08 08:44:07;;;;;;;17.58;14.15;;;17.90;99.90;;;;;;5048873;28;20033;-70
2023/05/08 08:46:36;;;;;;;16.58;14.05;;;18.00;99.90;;;;;;5049600;28;20037;-70
2023/05/08 08:49:04;;;;;;;15.20;13.50;;;18.10;99.90;;;;;;5048632;28;20033;-70
2023/05/08 08:52:01;;;;;;;17.83;14.55;;;18.20;99.90;;;;;;5049117;28;20041;-70
2023/05/08 08:54:33;;;;;;;18.10;15.20;;;18.30;99.90;;;;;;5045062;28;20049;-70
2023/05/08 08:57:03;;;;;;;17.02;13.98;;;18.40;99.90;;;;;;5050741;28;20033;-70
2023/05/08 08:59:30;;;;;;;17.87;14.90;;;18.50;99.90;;;;;;5043618;28;20029;-70
2023/05/08 09:02:00;;;;;;;21.60;14.52;;;18.50;99.90;;;;;;5044098;28;20295;-70
2023/05/08 09:04:26;;;;;;;18.45;15.57;;;18.60;99.90;;;;;;5048263;28;20033;-70
2023/05/08 09:06:52;;;;;;;18.67;14.88;;;18.70;99.90;;;;;;5049604;28;20052;-70
2023/05/08 09:09:18;;;;;;;18.25;15.15;;;18.70;99.90;;;;;;5046029;28;20488;-69
2023/05/08 09:11:45;;;;;;;20.13;15.05;;;18.70;99.90;;;;;;5048501;28;20076;-69
2023/05/08 09:14:11;;;;;;;17.25;14.95;;;18.70;99.90;;;;;;5030941;28;20398;-70
2023/05/08 09:16:36;;;;;;;18.20;15.45;;;18.80;99.90;;;;;;5059288;28;20094;-69
2023/05/08 09:19:03;;;;;;;19.45;16.02;;;18.80;99.90;;;;;;5031834;28;20116;-69
2023/05/08 09:21:29;;;;;;;18.65;15.38;;;18.90;99.90;;;;;;5036671;28;20041;-70
2023/05/08 09:24:02;;;;;;;19.48;15.63;;;19.00;99.90;;;;;;5049413;28;20056;-69
2023/05/08 09:26:32;;;;;;;18.27;15.43;;;19.10;99.90;;;;;;5043427;28;20095;-69
2023/05/08 09:29:14;;;;;;;18.95;16.00;;;19.20;99.90;;;;;;5044068;28;20049;-69
2023/05/08 09:31:45;;;;;;;19.63;15.75;;;19.20;99.90;;;;;;5050136;28;20041;-69
2023/05/08 09:34:31;;;;;;;18.25;15.63;;;19.20;99.90;;;;;;5050296;28;20120;-70
2023/05/08 09:37:11;;;;;;;20.10;16.60;;;19.30;99.90;;;;;;5054389;28;20041;-69
2023/05/08 09:39:40;;;;;;;18.17;15.88;;;19.40;99.90;;;;;;5053897;28;20041;-70
2023/05/08 09:42:05;;;;;;;22.70;16.02;;;19.40;99.90;;;;;;5054281;28;20124;-70
2023/05/08 09:44:48;;;;;;;19.90;16.20;;;19.40;99.90;;;;;;5053963;28;20455;-69
2023/05/08 09:47:24;;;;;;;18.30;15.70;;;19.50;99.90;;;;;;5050255;28;20558;-69
2023/05/08 09:49:56;;;;;;;20.13;17.63;;;19.60;99.90;;;;;;5052973;28;20047;-69
2023/05/08 09:52:23;;;;;;;17.77;15.00;;;19.70;99.90;;;;;;5053657;28;20044;-69
2023/05/08 09:55:08;;;;;;;18.85;16.05;;;19.90;99.90;;;;;;5052013;28;20037;-69
2023/05/08 09:57:37;;;;;;;19.58;16.67;;;20.00;99.90;;;;;;5048060;28;20047;-69
2023/05/08 10:00:08;;;;;;;19.77;15.57;;;20.00;99.90;;;;;;5047902;28;20492;-69
2023/05/08 10:02:35;;;;;;;18.33;16.33;;;20.00;99.90;;;;;;5053313;28;20056;-69
2023/05/08 10:05:03;;;;;;;17.90;15.98;;;20.10;99.90;;;;;;5031836;28;20041;-69
2023/05/08 10:07:34;;;;;;;18.48;16.48;;;20.20;99.90;;;;;;5047720;28;20048;-69
2023/05/08 10:10:05;;;;;;;20.05;16.20;;;20.30;99.90;;;;;;5051237;28;20387;-68
2023/05/08 10:12:31;;;;;;;23.25;16.55;;;20.50;99.90;;;;;;5052163;28;20111;-69
2023/05/08 10:14:58;;;;;;;17.77;14.80;;;20.50;99.90;;;;;;5052930;28;20037;-69
2023/05/08 10:17:42;;;;;;;18.20;15.25;;;20.60;99.90;;;;;;5053684;28;20045;-69
2023/05/08 10:20:11;;;;;;;18.77;15.23;;;20.60;99.90;;;;;;5053760;28;20052;-70
2023/05/08 10:22:38;;;;;;;19.60;16.35;;;20.60;99.90;;;;;;5053144;28;20517;-69
2023/05/08 10:25:12;;;;;;;19.85;15.52;;;20.60;99.90;;;;;;5052737;28;21186;-70
2023/05/08 10:27:49;;;;;;;19.25;16.00;;;20.70;99.90;;;;;;5052687;28;20049;-70
2023/05/08 10:30:29;;;;;;;19.67;15.05;;;20.80;99.90;;;;;;5052790;28;20124;-69
2023/05/08 10:32:58;;;;;;;19.83;15.57;;;20.80;99.90;;;;;;5053448;28;20498;-70
2023/05/08 10:35:24;;;;;;;18.05;15.13;;;20.80;99.90;;;;;;5052022;28;20041;-70
2023/05/08 10:37:50;;;;;;;18.60;15.23;;;20.80;99.90;;;;;;5051576;28;20036;-69
2023/05/08 10:40:17;;;;;;;18.65;15.05;;;20.90;99.90;;;;;;5053217;28;20482;-70
2023/05/08 10:42:44;;;;;;;20.98;16.13;;;20.80;99.90;;;;;;5051119;28;20049;-70
2023/05/08 10:45:11;;;;;;;19.00;15.88;;;20.80;99.90;;;;;;5051324;28;20083;-69
2023/05/08 10:48:03;;;;;;;20.83;15.45;;;21.00;99.90;;;;;;5053316;28;20045;-70
2023/05/08 10:50:31;;;;;;;17.75;15.05;;;21.20;99.90;;;;;;5052996;28;20473;-70
2023/05/08 10:53:19;;;;;;;18.92;16.38;;;21.20;99.90;;;;;;5052110;28;20394;-70
2023/05/08 10:55:48;;;;;;;18.27;15.40;;;21.10;99.90;;;;;;5051918;28;20041;-70
2023/05/08 10:58:28;;;;;;;21.23;15.40;;;21.10;99.90;;;;;;5052876;28;20099;-71
2023/05/08 11:00:58;;;;;;;21.38;16.50;;;21.20;99.90;;;;;;5052135;28;20036;-71
2023/05/08 11:06:45;;;;;;;19.38;17.13;;;21.40;99.90;;;;;;5050106;28;20323;-71
2023/05/08 11:09:25;;;;;;;22.83;17.33;;;21.40;99.90;;;;;;5050002;28;20158;-71
2023/05/08 11:12:17;;;;;;;21.10;16.02;;;21.50;99.90;;;;;;5048949;28;20128;-71
2023/05/08 11:14:52;;;;;;;29.70;17.33;;;21.50;99.90;;;;;;5030385;28;20507;-70
2023/05/08 11:17:23;;;;;;;20.40;17.23;;;21.50;99.90;;;;;;5045228;28;20049;-70
2023/05/08 11:20:00;;;;;;;21.77;17.55;;;21.50;99.90;;;;;;5052534;28;20048;-70
2023/05/08 11:22:33;;;;;;;20.65;16.85;;;21.70;99.90;;;;;;5050997;28;20052;-71
2023/05/08 11:25:07;;;;;;;21.38;16.58;;;21.80;99.90;;;;;;5052704;28;20093;-72
2023/05/08 11:27:59;;;;;;;20.77;17.17;;;21.90;99.90;;;;;;5051814;28;20136;-71
2023/05/08 11:30:35;;;;;;;19.23;15.88;;;21.90;99.90;;;;;;5052281;28;20555;-70
2023/05/08 11:33:03;;;;;;;20.00;15.98;;;22.00;99.90;;;;;;5045336;28;20041;-71
2023/05/08 11:35:48;;;;;;;22.90;17.30;;;22.10;99.90;;;;;;5065983;28;20045;-71
2023/05/08 11:38:24;;;;;;;22.45;16.23;;;22.10;99.90;;;;;;5046073;28;20091;-72
2023/05/08 11:40:57;;;;;;;21.70;17.05;;;22.20;99.90;;;;;;5051615;28;20407;-72
2023/05/08 11:43:32;;;;;;;20.58;17.15;;;22.30;99.90;;;;;;5051818;28;20462;-72
2023/05/08 11:46:16;;;;;;;21.13;16.63;;;22.30;99.90;;;;;;5051478;28;20048;-71
2023/05/08 11:48:42;;;;;;;22.17;16.50;;;22.30;99.90;;;;;;5052420;28;20036;-71
2023/05/08 11:51:08;;;;;;;21.48;17.45;;;22.20;99.90;;;;;;5051188;28;20044;-72
2023/05/08 11:53:35;;;;;;;22.23;17.50;;;22.20;99.90;;;;;;5051821;28;20048;-71
2023/05/08 11:56:02;;;;;;;21.95;17.45;;;22.30;99.90;;;;;;5051139;28;20471;-71
2023/05/08 11:58:27;;;;;;;19.85;15.93;;;22.30;99.90;;;;;;5050691;28;20037;-71
2023/05/08 12:00:54;;;;;;;22.35;17.08;;;22.30;99.90;;;;;;5045803;28;20041;-71
2023/05/08 12:03:21;;;;;;;20.15;16.88;;;22.30;99.90;;;;;;5049731;28;20052;-71
2023/05/08 12:05:48;;;;;;;20.17;16.92;;;22.30;99.90;;;;;;5048143;28;20048;-71
2023/05/08 12:08:16;;;;;;;23.75;17.63;;;22.40;99.90;;;;;;5050415;28;20040;-71
2023/05/08 12:10:52;;;;;;;19.48;16.55;;;22.40;99.90;;;;;;5064698;28;20045;-72
2023/05/08 12:13:19;;;;;;;20.92;16.58;;;22.40;99.90;;;;;;5050591;28;20127;-71
2023/05/08 12:15:50;;;;;;;21.35;15.93;;;22.40;99.90;;;;;;5049324;28;20049;-72
2023/05/08 12:18:16;;;;;;;25.67;17.30;;;22.40;99.90;;;;;;5044467;28;20046;-72
2023/05/08 12:20:45;;;;;;;21.67;17.52;;;22.50;99.90;;;;;;5047021;28;20059;-71
2023/05/08 12:23:11;;;;;;;22.42;17.23;;;22.40;99.90;;;;;;5051378;28;20397;-72
2023/05/08 12:25:38;;;;;;;19.80;16.73;;;22.50;99.90;;;;;;5034585;28;20045;-71
2023/05/08 12:28:08;;;;;;;18.05;15.10;;;22.50;99.90;;;;;;5050796;28;20216;-71
2023/05/08 12:30:34;;;;;;;19.90;15.68;;;22.50;99.90;;;;;;5051108;28;20029;-72
2023/05/08 12:33:01;;;;;;;19.55;15.77;;;22.70;99.90;;;;;;5049935;28;20041;-71
2023/05/08 12:35:27;;;;;;;19.52;16.50;;;22.70;99.90;;;;;;5050072;28;20044;-72
2023/05/08 12:37:52;;;;;;;17.95;15.70;;;22.80;99.90;;;;;;5050263;28;21758;-70
2023/05/08 12:40:30;;;;;;;25.45;16.38;;;22.70;99.90;;;;;;5048874;28;20033;-70
2023/05/08 12:42:56;;;;;;;23.55;15.38;;;22.80;99.90;;;;;;5050468;28;20041;-71